Mann, Pennsylvania
Current Conditions -  °F | °C
As of 11:28 AM on Tuesday 21 Oct 2014 (Local Time) from KCBE Reporting Station
Broken Clouds Broken Clouds  
Wind Chill: 63°   Ceiling: 3600
Heat Index: 63°   Visibility: 10mi
Dew Point: 46°   Wind: 7mph
Humidity: 55%   Direction: 250°WSW
Pressure: 29.9"   Gusts: NA
Location:  39.7658°N, 78.4047°W
Report Text: KCBE 211528Z AUTO 25006KT 10SM BKN036 17/08 A2990 RMK AO1
Loading
Personal Weather Stations






























Interactive Weather Map
Tropical Storm Tracking
New forecast layout! Learn more

10-Day Weather Forecast

Advertisements
Track Severe Weather on mobile